Flugplatz Erfurt

Bericht für EDDE

vom 07.08. um 08:20 UTC

Wind 4 kt aus 20°

Sichtweite 10 km oder mehr

gute Sicht, keine Wolken < 5000 ft, keine CB, keine Wettererscheinungen (CAVOK)

Temperatur 24.0°C

Taupunkt 12.0°C

Luftfeuchtigkeit 47%

Luftdruck 1023 hPa

keine wesentliche Wetteränderung innerhalb den nächsten 2 Stunden zu erwarten

EDDE 070820Z 02004KT 320V080 CAVOK 24/12 Q1023 NOSIG

Prognose für EDDE

vom 07.08. um 05:00 UTC

Zwischen 06:00 UTC und 08:00 UTC

Wind 5 kt aus 210°

Sichtweite 10 km oder mehr

keine signifikanten Wettererscheinungen

keine Wolken


Zwischen 08:00 und 11:00 UTC übergehend zu

Wind 5 kt aus 70°

Sichtweite 10 km oder mehr

keine signifikanten Wettererscheinungen

keine Wolken


Zwischen 20:00 und 23:00 UTC übergehend zu

Wind 5 kt aus 210°

Sichtweite 10 km oder mehr

keine signifikanten Wettererscheinungen

keine Wolken

TAF EDDE 070500Z 0706/0806 21005KT CAVOK BECMG 0708/0711 07005KT BECMG 0720/0723 21005KT
Impressum